Iguana — FAB5698 — position and weather

sailwx.info

Track history (hours):
 
Tides and Currents Weather Stations Pressure Air Temp Water Temp Dewpoint Dewpoint Depression Visibility Wind Speed Wind Dir Waves Ship Positions

Iguana

Last reported at 2017-Aug-27 23:16 UTC. Time now 2017-Nov-20 16:58 UTC.
Position N 14°28' W 060°52'.
Warning: this ship's position is months out of date.

Type: Pleasure craft. MMSI: 347013850.

Date/timePositionNaut miles runAvg speedWind from/ knotsBaromVisibWave heightAir tempDewpointWater temp
2017-Aug-27 23:16N 14°28' W 060°52'1 5.5
2017-Aug-27 23:00N 14°27' W 060°53'1 1.3
2017-Aug-27 22:15N 14°27' W 060°54'1 5.6
2017-Aug-27 22:00N 14°27' W 060°56'0 0.1
2017-Aug-27 14:12N 14°27' W 060°55'2 7.6
2017-Aug-27 14:00N 14°27' W 060°54'  
2017-Aug-24 16:34N 14°28' W 060°52'0 0.0
2017-Aug-24 16:28N 14°28' W 060°52'0 0.0
2017-Aug-24 15:16N 14°28' W 060°52'0 0.0
2017-Aug-24 14:07N 14°28' W 060°52'0 0.0
2017-Aug-24 13:55N 14°28' W 060°52'0 0.0
2017-Aug-24 06:38N 14°28' W 060°52'0 0.0
2017-Aug-23 22:21N 14°28' W 060°52'2 4.5
2017-Aug-23 22:00N 14°27' W 060°53'2 3.6
2017-Aug-23 21:26N 14°25' W 060°54'0 0.0
2017-Aug-23 20:59N 14°25' W 060°54'0 0.0
2017-Aug-23 20:29N 14°25' W 060°54'0 0.0
2017-Aug-23 19:59N 14°25' W 060°54'0 0.0
2017-Aug-23 19:29N 14°25' W 060°54'0 0.0
2017-Aug-23 18:56N 14°25' W 060°54'0 0.0
2017-Aug-23 18:23N 14°25' W 060°54'0 0.0
2017-Aug-23 17:59N 14°25' W 060°54'0 0.0
2017-Aug-23 17:29N 14°25' W 060°54'1 2.5
2017-Aug-23 17:00N 14°25' W 060°55'2 0.7
2017-Aug-23 14:11N 14°27' W 060°55'4 0.1
2017-Aug-22 12:59N 14°28' W 060°52'0 0.1
2017-Aug-22 11:48N 14°28' W 060°52'0 0.0
2017-Aug-22 11:30N 14°28' W 060°52'0 0.0
2017-Aug-22 10:54N 14°28' W 060°52'0 0.0
2017-Aug-22 10:30N 14°28' W 060°52'0 0.0
2017-Aug-22 10:00N 14°28' W 060°52'0 0.0
2017-Aug-22 09:30N 14°28' W 060°52'0 0.0
2017-Aug-22 08:57N 14°28' W 060°52'0 0.0
2017-Aug-22 08:30N 14°28' W 060°52'0 0.0
2017-Aug-22 08:00N 14°28' W 060°52'0 0.0
2017-Aug-22 07:30N 14°28' W 060°52'0 0.0
2017-Aug-22 07:00N 14°28' W 060°52'0 0.0
2017-Aug-22 06:30N 14°28' W 060°52'0 0.0
2017-Aug-22 05:57N 14°28' W 060°52'0 0.0
2017-Aug-22 05:15N 14°28' W 060°52'0 0.0
2017-Aug-22 04:54N 14°28' W 060°52'0 0.0
2017-Aug-22 04:27N 14°28' W 060°52'0 0.0
2017-Aug-22 04:00N 14°28' W 060°52'0 0.0
2017-Aug-22 03:15N 14°28' W 060°52'0 0.0
2017-Aug-22 02:18N 14°28' W 060°52'0 0.0
2017-Aug-22 01:57N 14°28' W 060°52'0 0.0
2017-Aug-22 01:30N 14°28' W 060°52'0 0.1
2017-Aug-22 01:00N 14°28' W 060°52'4 6.9
2017-Aug-22 00:30N 14°26' W 060°55'4 0.2
2017-Aug-21 08:32N 14°22' W 060°56'1 6.8
2017-Aug-21 08:27N 14°23' W 060°56'3 6.0
2017-Aug-21 07:59N 14°25' W 060°55'2 5.2
2017-Aug-21 07:30N 14°27' W 060°53'1 2.7
2017-Aug-21 07:00N 14°28' W 060°52'0 0.0
2017-Aug-21 06:30N 14°28' W 060°52'0 0.0
2017-Aug-21 06:00N 14°28' W 060°52'0 0.0
2017-Aug-21 05:30N 14°28' W 060°52'0 0.0
2017-Aug-21 05:00N 14°28' W 060°52'0 0.0
2017-Aug-21 04:27N 14°28' W 060°52'0 0.0
2017-Aug-21 03:57N 14°28' W 060°52'0 0.0
2017-Aug-21 03:30N 14°28' W 060°52'0 0.0
2017-Aug-21 03:00N 14°28' W 060°52'0 0.0
2017-Aug-21 02:27N 14°28' W 060°52'0 0.0
2017-Aug-21 02:00N 14°28' W 060°52'0 0.0
2017-Aug-21 01:30N 14°28' W 060°52'0 0.0
2017-Aug-21 01:00N 14°28' W 060°52'0 0.0
2017-Aug-21 00:24N 14°28' W 060°52'0 0.0
2017-Aug-21 00:00N 14°28' W 060°52'0 0.0
2017-Aug-20 23:30N 14°28' W 060°52'0 0.0
2017-Aug-20 23:00N 14°28' W 060°52'0 0.0
2017-Aug-20 22:30N 14°28' W 060°52'0 0.0
2017-Aug-20 22:00N 14°28' W 060°52'1 1.4
2017-Aug-20 21:30N 14°28' W 060°53'3 6.4
2017-Aug-20 21:00N 14°26' W 060°56'1 0.0
2017-Aug-19 23:57N 14°26' W 060°56'3 7.3
2017-Aug-19 23:30N 14°27' W 060°53'1 2.5
2017-Aug-19 22:55N 14°28' W 060°52'0 0.4
2017-Aug-19 22:30N 14°28' W 060°52'0 0.0
2017-Aug-19 21:48N 14°28' W 060°52'0 0.0
2017-Aug-19 14:45N 14°28' W 060°52'  
Track history (hours):
 
Tides and Currents Weather Stations Pressure Air Temp Water Temp Dewpoint Dewpoint Depression Visibility Wind Speed Wind Dir Waves Ship Positions

Iguana

Last reported at 2017-Aug-27 23:16 UTC. Time now 2017-Nov-20 16:58 UTC.
Position N 14°28' W 060°52'.
Warning: this ship's position is months out of date.

Type: Pleasure craft. MMSI: 347013850.

Date/timePositionNaut miles runAvg speedWind from/ knotsBaromVisibWave heightAir tempDewpointWater temp
2017-Aug-27 23:16N 14°28' W 060°52'1 5.5
2017-Aug-27 23:00N 14°27' W 060°53'1 1.3
2017-Aug-27 22:15N 14°27' W 060°54'1 5.6
2017-Aug-27 22:00N 14°27' W 060°56'0 0.1
2017-Aug-27 14:12N 14°27' W 060°55'2 7.6
2017-Aug-27 14:00N 14°27' W 060°54'  
2017-Aug-24 16:34N 14°28' W 060°52'0 0.0
2017-Aug-24 16:28N 14°28' W 060°52'0 0.0
2017-Aug-24 15:16N 14°28' W 060°52'0 0.0
2017-Aug-24 14:07N 14°28' W 060°52'0 0.0
2017-Aug-24 13:55N 14°28' W 060°52'0 0.0
2017-Aug-24 06:38N 14°28' W 060°52'0 0.0
2017-Aug-23 22:21N 14°28' W 060°52'2 4.5
2017-Aug-23 22:00N 14°27' W 060°53'2 3.6
2017-Aug-23 21:26N 14°25' W 060°54'0 0.0
2017-Aug-23 20:59N 14°25' W 060°54'0 0.0
2017-Aug-23 20:29N 14°25' W 060°54'0 0.0
2017-Aug-23 19:59N 14°25' W 060°54'0 0.0
2017-Aug-23 19:29N 14°25' W 060°54'0 0.0
2017-Aug-23 18:56N 14°25' W 060°54'0 0.0
2017-Aug-23 18:23N 14°25' W 060°54'0 0.0
2017-Aug-23 17:59N 14°25' W 060°54'0 0.0
2017-Aug-23 17:29N 14°25' W 060°54'1 2.5
2017-Aug-23 17:00N 14°25' W 060°55'2 0.7
2017-Aug-23 14:11N 14°27' W 060°55'4 0.1
2017-Aug-22 12:59N 14°28' W 060°52'0 0.1
2017-Aug-22 11:48N 14°28' W 060°52'0 0.0
2017-Aug-22 11:30N 14°28' W 060°52'0 0.0
2017-Aug-22 10:54N 14°28' W 060°52'0 0.0
2017-Aug-22 10:30N 14°28' W 060°52'0 0.0
2017-Aug-22 10:00N 14°28' W 060°52'0 0.0
2017-Aug-22 09:30N 14°28' W 060°52'0 0.0
2017-Aug-22 08:57N 14°28' W 060°52'0 0.0
2017-Aug-22 08:30N 14°28' W 060°52'0 0.0
2017-Aug-22 08:00N 14°28' W 060°52'0 0.0
2017-Aug-22 07:30N 14°28' W 060°52'0 0.0
2017-Aug-22 07:00N 14°28' W 060°52'0 0.0
2017-Aug-22 06:30N 14°28' W 060°52'0 0.0
2017-Aug-22 05:57N 14°28' W 060°52'0 0.0
2017-Aug-22 05:15N 14°28' W 060°52'0 0.0
2017-Aug-22 04:54N 14°28' W 060°52'0 0.0
2017-Aug-22 04:27N 14°28' W 060°52'0 0.0
2017-Aug-22 04:00N 14°28' W 060°52'0 0.0
2017-Aug-22 03:15N 14°28' W 060°52'0 0.0
2017-Aug-22 02:18N 14°28' W 060°52'0 0.0
2017-Aug-22 01:57N 14°28' W 060°52'0 0.0
2017-Aug-22 01:30N 14°28' W 060°52'0 0.1
2017-Aug-22 01:00N 14°28' W 060°52'4 6.9
2017-Aug-22 00:30N 14°26' W 060°55'4 0.2
2017-Aug-21 08:32N 14°22' W 060°56'1 6.8
2017-Aug-21 08:27N 14°23' W 060°56'3 6.0
2017-Aug-21 07:59N 14°25' W 060°55'2 5.2
2017-Aug-21 07:30N 14°27' W 060°53'1 2.7
2017-Aug-21 07:00N 14°28' W 060°52'0 0.0
2017-Aug-21 06:30N 14°28' W 060°52'0 0.0
2017-Aug-21 06:00N 14°28' W 060°52'0 0.0
2017-Aug-21 05:30N 14°28' W 060°52'0 0.0
2017-Aug-21 05:00N 14°28' W 060°52'0 0.0
2017-Aug-21 04:27N 14°28' W 060°52'0 0.0
2017-Aug-21 03:57N 14°28' W 060°52'0 0.0
2017-Aug-21 03:30N 14°28' W 060°52'0 0.0
2017-Aug-21 03:00N 14°28' W 060°52'0 0.0
2017-Aug-21 02:27N 14°28' W 060°52'0 0.0
2017-Aug-21 02:00N 14°28' W 060°52'0 0.0
2017-Aug-21 01:30N 14°28' W 060°52'0 0.0
2017-Aug-21 01:00N 14°28' W 060°52'0 0.0
2017-Aug-21 00:24N 14°28' W 060°52'0 0.0
2017-Aug-21 00:00N 14°28' W 060°52'0 0.0
2017-Aug-20 23:30N 14°28' W 060°52'0 0.0
2017-Aug-20 23:00N 14°28' W 060°52'0 0.0
2017-Aug-20 22:30N 14°28' W 060°52'0 0.0
2017-Aug-20 22:00N 14°28' W 060°52'1 1.4
2017-Aug-20 21:30N 14°28' W 060°53'3 6.4
2017-Aug-20 21:00N 14°26' W 060°56'1 0.0
2017-Aug-19 23:57N 14°26' W 060°56'3 7.3
2017-Aug-19 23:30N 14°27' W 060°53'1 2.5
2017-Aug-19 22:55N 14°28' W 060°52'0 0.4
2017-Aug-19 22:30N 14°28' W 060°52'0 0.0
2017-Aug-19 21:48N 14°28' W 060°52'0 0.0
2017-Aug-19 14:45N 14°28' W 060°52'  

Dump ship's entire track history